sensor_id;sensor_type;location;lat;lon;timestamp;P1;durP1;ratioP1;P2;durP2;ratioP2
45684;SDS011;46836;48.388;16.210;2022-08-19T00:01:55;7.50;;;5.67;;
45684;SDS011;46836;48.388;16.210;2022-08-19T00:04:26;12.33;;;6.37;;
45684;SDS011;46836;48.388;16.210;2022-08-19T00:06:56;9.67;;;6.37;;
45684;SDS011;46836;48.388;16.210;2022-08-19T00:09:24;12.03;;;6.57;;
45684;SDS011;46836;48.388;16.210;2022-08-19T00:11:53;13.63;;;8.10;;
45684;SDS011;46836;48.388;16.210;2022-08-19T00:14:22;8.47;;;5.90;;
45684;SDS011;46836;48.388;16.210;2022-08-19T00:16:50;9.90;;;6.07;;
45684;SDS011;46836;48.388;16.210;2022-08-19T00:19:20;7.63;;;5.90;;
45684;SDS011;46836;48.388;16.210;2022-08-19T00:21:48;12.53;;;5.90;;
45684;SDS011;46836;48.388;16.210;2022-08-19T00:24:15;8.63;;;6.17;;
45684;SDS011;46836;48.388;16.210;2022-08-19T00:26:43;9.57;;;7.97;;
45684;SDS011;46836;48.388;16.210;2022-08-19T00:29:13;10.97;;;7.60;;
45684;SDS011;46836;48.388;16.210;2022-08-19T00:31:42;10.73;;;7.90;;
45684;SDS011;46836;48.388;16.210;2022-08-19T00:34:11;13.30;;;9.27;;
45684;SDS011;46836;48.388;16.210;2022-08-19T00:36:40;10.80;;;7.50;;
45684;SDS011;46836;48.388;16.210;2022-08-19T00:39:08;8.57;;;6.83;;
45684;SDS011;46836;48.388;16.210;2022-08-19T00:41:36;8.37;;;7.40;;
45684;SDS011;46836;48.388;16.210;2022-08-19T00:44:14;13.33;;;7.73;;
45684;SDS011;46836;48.388;16.210;2022-08-19T00:46:48;12.70;;;6.73;;
45684;SDS011;46836;48.388;16.210;2022-08-19T00:49:35;19.63;;;7.17;;
45684;SDS011;46836;48.388;16.210;2022-08-19T00:52:20;9.93;;;7.10;;
45684;SDS011;46836;48.388;16.210;2022-08-19T00:54:59;11.80;;;7.63;;
45684;SDS011;46836;48.388;16.210;2022-08-19T00:57:30;13.27;;;6.70;;
45684;SDS011;46836;48.388;16.210;2022-08-19T01:00:03;11.70;;;6.77;;
45684;SDS011;46836;48.388;16.210;2022-08-19T01:02:39;11.50;;;7.93;;
45684;SDS011;46836;48.388;16.210;2022-08-19T01:05:11;8.40;;;7.03;;
45684;SDS011;46836;48.388;16.210;2022-08-19T01:07:43;8.10;;;6.93;;
45684;SDS011;46836;48.388;16.210;2022-08-19T01:10:12;14.37;;;8.00;;
45684;SDS011;46836;48.388;16.210;2022-08-19T01:12:48;11.03;;;7.10;;
45684;SDS011;46836;48.388;16.210;2022-08-19T01:15:17;9.33;;;6.40;;
45684;SDS011;46836;48.388;16.210;2022-08-19T01:17:47;12.03;;;7.80;;
45684;SDS011;46836;48.388;16.210;2022-08-19T01:20:17;11.00;;;8.37;;
45684;SDS011;46836;48.388;16.210;2022-08-19T01:22:53;12.30;;;8.13;;
45684;SDS011;46836;48.388;16.210;2022-08-19T01:25:26;13.70;;;8.10;;
45684;SDS011;46836;48.388;16.210;2022-08-19T01:27:58;9.03;;;7.30;;
45684;SDS011;46836;48.388;16.210;2022-08-19T01:30:36;10.63;;;7.47;;
45684;SDS011;46836;48.388;16.210;2022-08-19T01:33:03;8.30;;;6.60;;
45684;SDS011;46836;48.388;16.210;2022-08-19T01:35:32;10.80;;;7.40;;
45684;SDS011;46836;48.388;16.210;2022-08-19T01:38:00;7.97;;;6.47;;
45684;SDS011;46836;48.388;16.210;2022-08-19T01:40:35;9.33;;;7.80;;
45684;SDS011;46836;48.388;16.210;2022-08-19T01:43:05;12.50;;;7.70;;
45684;SDS011;46836;48.388;16.210;2022-08-19T01:45:33;9.60;;;7.60;;
45684;SDS011;46836;48.388;16.210;2022-08-19T01:48:02;8.87;;;7.63;;
45684;SDS011;46836;48.388;16.210;2022-08-19T01:50:30;10.87;;;7.17;;
45684;SDS011;46836;48.388;16.210;2022-08-19T01:52:58;8.17;;;7.13;;
45684;SDS011;46836;48.388;16.210;2022-08-19T01:55:34;8.40;;;6.80;;
45684;SDS011;46836;48.388;16.210;2022-08-19T01:58:07;12.53;;;6.43;;
45684;SDS011;46836;48.388;16.210;2022-08-19T02:00:38;9.30;;;6.77;;
45684;SDS011;46836;48.388;16.210;2022-08-19T02:03:06;11.70;;;9.53;;
45684;SDS011;46836;48.388;16.210;2022-08-19T02:05:34;10.30;;;7.40;;
45684;SDS011;46836;48.388;16.210;2022-08-19T02:08:02;10.33;;;8.23;;
45684;SDS011;46836;48.388;16.210;2022-08-19T02:10:30;10.07;;;7.53;;
45684;SDS011;46836;48.388;16.210;2022-08-19T02:12:58;9.27;;;7.40;;
45684;SDS011;46836;48.388;16.210;2022-08-19T02:15:25;9.63;;;8.40;;
45684;SDS011;46836;48.388;16.210;2022-08-19T02:17:53;11.27;;;8.60;;
45684;SDS011;46836;48.388;16.210;2022-08-19T02:20:20;9.70;;;7.10;;
45684;SDS011;46836;48.388;16.210;2022-08-19T02:22:47;12.40;;;8.20;;
45684;SDS011;46836;48.388;16.210;2022-08-19T02:25:14;13.10;;;8.00;;
45684;SDS011;46836;48.388;16.210;2022-08-19T02:27:41;10.67;;;8.20;;
45684;SDS011;46836;48.388;16.210;2022-08-19T02:30:11;11.00;;;7.70;;
45684;SDS011;46836;48.388;16.210;2022-08-19T02:32:42;11.27;;;8.40;;
45684;SDS011;46836;48.388;16.210;2022-08-19T02:35:20;15.23;;;10.40;;
45684;SDS011;46836;48.388;16.210;2022-08-19T02:37:47;10.80;;;7.97;;
45684;SDS011;46836;48.388;16.210;2022-08-19T02:40:33;13.33;;;10.10;;
45684;SDS011;46836;48.388;16.210;2022-08-19T02:43:02;14.20;;;10.13;;
45684;SDS011;46836;48.388;16.210;2022-08-19T02:45:34;17.07;;;9.53;;
45684;SDS011;46836;48.388;16.210;2022-08-19T02:48:06;10.50;;;9.03;;
45684;SDS011;46836;48.388;16.210;2022-08-19T02:50:47;11.80;;;9.90;;
45684;SDS011;46836;48.388;16.210;2022-08-19T02:53:22;12.50;;;9.70;;
45684;SDS011;46836;48.388;16.210;2022-08-19T02:55:52;13.80;;;9.30;;
45684;SDS011;46836;48.388;16.210;2022-08-19T02:58:20;11.37;;;9.63;;
45684;SDS011;46836;48.388;16.210;2022-08-19T03:00:53;13.53;;;8.67;;
45684;SDS011;46836;48.388;16.210;2022-08-19T03:03:22;11.60;;;8.10;;
45684;SDS011;46836;48.388;16.210;2022-08-19T03:05:49;9.70;;;8.10;;
45684;SDS011;46836;48.388;16.210;2022-08-19T03:08:22;13.00;;;9.67;;
45684;SDS011;46836;48.388;16.210;2022-08-19T03:10:52;9.87;;;7.53;;
45684;SDS011;46836;48.388;16.210;2022-08-19T03:13:19;10.53;;;7.40;;
45684;SDS011;46836;48.388;16.210;2022-08-19T03:15:47;10.57;;;7.20;;
45684;SDS011;46836;48.388;16.210;2022-08-19T03:18:14;11.50;;;6.93;;
45684;SDS011;46836;48.388;16.210;2022-08-19T03:20:48;9.50;;;7.30;;
45684;SDS011;46836;48.388;16.210;2022-08-19T03:23:16;9.17;;;6.30;;
45684;SDS011;46836;48.388;16.210;2022-08-19T03:25:45;9.43;;;6.70;;
45684;SDS011;46836;48.388;16.210;2022-08-19T03:28:33;12.37;;;7.40;;
45684;SDS011;46836;48.388;16.210;2022-08-19T03:31:08;8.10;;;6.07;;
45684;SDS011;46836;48.388;16.210;2022-08-19T03:34:00;8.23;;;6.33;;
45684;SDS011;46836;48.388;16.210;2022-08-19T03:36:29;10.43;;;7.17;;
45684;SDS011;46836;48.388;16.210;2022-08-19T03:38:57;10.40;;;7.03;;
45684;SDS011;46836;48.388;16.210;2022-08-19T03:41:35;14.40;;;7.97;;
45684;SDS011;46836;48.388;16.210;2022-08-19T03:44:13;13.67;;;7.00;;
45684;SDS011;46836;48.388;16.210;2022-08-19T03:46:44;11.53;;;8.07;;
45684;SDS011;46836;48.388;16.210;2022-08-19T03:49:13;10.87;;;7.70;;
45684;SDS011;46836;48.388;16.210;2022-08-19T03:51:43;12.50;;;7.60;;
45684;SDS011;46836;48.388;16.210;2022-08-19T03:54:13;10.23;;;6.90;;
45684;SDS011;46836;48.388;16.210;2022-08-19T03:56:43;9.67;;;7.53;;
45684;SDS011;46836;48.388;16.210;2022-08-19T03:59:13;8.83;;;7.23;;
45684;SDS011;46836;48.388;16.210;2022-08-19T04:01:43;10.60;;;7.67;;
45684;SDS011;46836;48.388;16.210;2022-08-19T04:04:10;10.53;;;8.13;;
45684;SDS011;46836;48.388;16.210;2022-08-19T04:06:37;7.63;;;6.90;;
45684;SDS011;46836;48.388;16.210;2022-08-19T04:09:07;8.37;;;6.40;;
45684;SDS011;46836;48.388;16.210;2022-08-19T04:11:38;11.30;;;6.80;;
45684;SDS011;46836;48.388;16.210;2022-08-19T04:14:17;11.40;;;6.60;;
45684;SDS011;46836;48.388;16.210;2022-08-19T04:16:46;8.37;;;6.63;;
45684;SDS011;46836;48.388;16.210;2022-08-19T04:19:15;10.03;;;5.93;;
45684;SDS011;46836;48.388;16.210;2022-08-19T04:21:47;11.10;;;6.00;;
45684;SDS011;46836;48.388;16.210;2022-08-19T04:24:17;8.57;;;5.80;;
45684;SDS011;46836;48.388;16.210;2022-08-19T04:26:45;6.60;;;5.90;;
45684;SDS011;46836;48.388;16.210;2022-08-19T04:29:16;9.50;;;6.30;;
45684;SDS011;46836;48.388;16.210;2022-08-19T04:31:48;6.90;;;5.40;;
45684;SDS011;46836;48.388;16.210;2022-08-19T04:34:18;10.13;;;5.97;;
45684;SDS011;46836;48.388;16.210;2022-08-19T04:36:50;7.43;;;6.50;;
45684;SDS011;46836;48.388;16.210;2022-08-19T04:39:23;8.27;;;6.40;;
45684;SDS011;46836;48.388;16.210;2022-08-19T04:42:14;10.10;;;6.33;;
45684;SDS011;46836;48.388;16.210;2022-08-19T04:45:01;10.13;;;5.97;;
45684;SDS011;46836;48.388;16.210;2022-08-19T04:47:34;8.83;;;6.80;;
45684;SDS011;46836;48.388;16.210;2022-08-19T04:50:23;8.57;;;6.23;;
45684;SDS011;46836;48.388;16.210;2022-08-19T04:52:51;7.37;;;5.87;;
45684;SDS011;46836;48.388;16.210;2022-08-19T04:55:18;7.23;;;5.90;;
45684;SDS011;46836;48.388;16.210;2022-08-19T04:57:46;8.13;;;6.47;;
45684;SDS011;46836;48.388;16.210;2022-08-19T05:00:13;6.23;;;5.27;;
45684;SDS011;46836;48.388;16.210;2022-08-19T05:02:40;7.60;;;6.23;;
45684;SDS011;46836;48.388;16.210;2022-08-19T05:05:07;13.67;;;6.10;;
45684;SDS011;46836;48.388;16.210;2022-08-19T05:07:35;7.83;;;6.50;;
45684;SDS011;46836;48.388;16.210;2022-08-19T05:10:03;9.90;;;6.90;;
45684;SDS011;46836;48.388;16.210;2022-08-19T05:12:31;7.40;;;5.50;;
45684;SDS011;46836;48.388;16.210;2022-08-19T05:14:58;9.23;;;6.00;;
45684;SDS011;46836;48.388;16.210;2022-08-19T05:17:27;9.97;;;6.47;;
45684;SDS011;46836;48.388;16.210;2022-08-19T05:20:00;9.40;;;6.87;;
45684;SDS011;46836;48.388;16.210;2022-08-19T05:22:46;13.43;;;6.00;;
45684;SDS011;46836;48.388;16.210;2022-08-19T05:25:16;10.63;;;5.97;;
45684;SDS011;46836;48.388;16.210;2022-08-19T05:27:46;8.23;;;5.37;;
45684;SDS011;46836;48.388;16.210;2022-08-19T05:30:14;10.90;;;6.43;;
45684;SDS011;46836;48.388;16.210;2022-08-19T05:32:42;12.13;;;6.33;;
45684;SDS011;46836;48.388;16.210;2022-08-19T05:35:10;11.20;;;6.60;;
45684;SDS011;46836;48.388;16.210;2022-08-19T05:37:38;10.90;;;6.33;;
45684;SDS011;46836;48.388;16.210;2022-08-19T05:40:09;6.13;;;5.60;;
45684;SDS011;46836;48.388;16.210;2022-08-19T05:42:37;9.17;;;5.60;;
45684;SDS011;46836;48.388;16.210;2022-08-19T05:45:04;8.40;;;6.00;;
45684;SDS011;46836;48.388;16.210;2022-08-19T05:47:32;10.93;;;6.00;;
45684;SDS011;46836;48.388;16.210;2022-08-19T05:49:59;12.47;;;6.80;;
45684;SDS011;46836;48.388;16.210;2022-08-19T05:52:30;8.43;;;5.90;;
45684;SDS011;46836;48.388;16.210;2022-08-19T05:54:59;8.70;;;6.70;;
45684;SDS011;46836;48.388;16.210;2022-08-19T05:57:26;12.63;;;7.20;;
45684;SDS011;46836;48.388;16.210;2022-08-19T05:59:56;8.83;;;6.73;;
45684;SDS011;46836;48.388;16.210;2022-08-19T06:02:26;10.73;;;6.57;;
45684;SDS011;46836;48.388;16.210;2022-08-19T06:04:59;10.30;;;6.97;;
45684;SDS011;46836;48.388;16.210;2022-08-19T06:07:28;9.77;;;6.50;;
45684;SDS011;46836;48.388;16.210;2022-08-19T06:09:55;10.03;;;7.23;;
45684;SDS011;46836;48.388;16.210;2022-08-19T06:12:26;9.10;;;7.57;;
45684;SDS011;46836;48.388;16.210;2022-08-19T06:14:55;10.23;;;6.47;;
45684;SDS011;46836;48.388;16.210;2022-08-19T06:17:27;11.60;;;7.67;;
45684;SDS011;46836;48.388;16.210;2022-08-19T06:19:57;8.03;;;7.20;;
45684;SDS011;46836;48.388;16.210;2022-08-19T06:22:25;11.97;;;8.40;;
45684;SDS011;46836;48.388;16.210;2022-08-19T06:24:54;7.77;;;6.97;;
45684;SDS011;46836;48.388;16.210;2022-08-19T06:27:22;6.93;;;6.13;;
45684;SDS011;46836;48.388;16.210;2022-08-19T06:29:49;10.13;;;8.00;;
45684;SDS011;46836;48.388;16.210;2022-08-19T06:32:17;10.23;;;7.77;;
45684;SDS011;46836;48.388;16.210;2022-08-19T06:34:45;16.37;;;7.33;;
45684;SDS011;46836;48.388;16.210;2022-08-19T06:37:13;9.73;;;8.00;;
45684;SDS011;46836;48.388;16.210;2022-08-19T06:39:40;10.87;;;7.13;;
45684;SDS011;46836;48.388;16.210;2022-08-19T06:42:10;13.33;;;8.13;;
45684;SDS011;46836;48.388;16.210;2022-08-19T06:44:40;8.40;;;7.50;;
45684;SDS011;46836;48.388;16.210;2022-08-19T06:47:18;9.43;;;8.20;;
45684;SDS011;46836;48.388;16.210;2022-08-19T06:49:52;9.80;;;8.80;;
45684;SDS011;46836;48.388;16.210;2022-08-19T06:52:32;11.73;;;8.50;;
45684;SDS011;46836;48.388;16.210;2022-08-19T06:55:03;13.80;;;8.00;;
45684;SDS011;46836;48.388;16.210;2022-08-19T06:57:32;9.40;;;7.70;;
45684;SDS011;46836;48.388;16.210;2022-08-19T07:00:00;9.10;;;6.80;;
45684;SDS011;46836;48.388;16.210;2022-08-19T07:02:27;10.40;;;7.90;;
45684;SDS011;46836;48.388;16.210;2022-08-19T07:04:54;12.73;;;7.37;;
45684;SDS011;46836;48.388;16.210;2022-08-19T07:07:24;13.77;;;8.47;;
45684;SDS011;46836;48.388;16.210;2022-08-19T07:09:51;10.07;;;8.80;;
45684;SDS011;46836;48.388;16.210;2022-08-19T07:12:29;14.60;;;9.70;;
45684;SDS011;46836;48.388;16.210;2022-08-19T07:15:06;13.30;;;7.80;;
45684;SDS011;46836;48.388;16.210;2022-08-19T07:17:36;9.03;;;7.57;;
45684;SDS011;46836;48.388;16.210;2022-08-19T07:20:08;9.33;;;7.60;;
45684;SDS011;46836;48.388;16.210;2022-08-19T07:22:37;16.03;;;7.60;;
45684;SDS011;46836;48.388;16.210;2022-08-19T07:25:05;9.80;;;7.23;;
45684;SDS011;46836;48.388;16.210;2022-08-19T07:27:34;8.03;;;7.20;;
45684;SDS011;46836;48.388;16.210;2022-08-19T07:30:02;7.07;;;6.23;;
45684;SDS011;46836;48.388;16.210;2022-08-19T07:32:37;7.83;;;6.07;;
45684;SDS011;46836;48.388;16.210;2022-08-19T07:35:05;7.70;;;6.87;;
45684;SDS011;46836;48.388;16.210;2022-08-19T07:37:33;6.77;;;5.57;;
45684;SDS011;46836;48.388;16.210;2022-08-19T07:40:03;11.93;;;6.80;;
45684;SDS011;46836;48.388;16.210;2022-08-19T07:42:32;8.60;;;5.93;;
45684;SDS011;46836;48.388;16.210;2022-08-19T07:44:59;10.40;;;6.60;;
45684;SDS011;46836;48.388;16.210;2022-08-19T07:47:26;8.40;;;6.43;;
45684;SDS011;46836;48.388;16.210;2022-08-19T07:50:14;6.73;;;6.13;;
45684;SDS011;46836;48.388;16.210;2022-08-19T07:52:42;7.60;;;6.70;;
45684;SDS011;46836;48.388;16.210;2022-08-19T07:55:16;7.10;;;6.33;;
45684;SDS011;46836;48.388;16.210;2022-08-19T07:58:08;9.37;;;6.47;;
45684;SDS011;46836;48.388;16.210;2022-08-19T08:00:35;9.73;;;6.30;;
45684;SDS011;46836;48.388;16.210;2022-08-19T08:03:02;6.77;;;6.10;;
45684;SDS011;46836;48.388;16.210;2022-08-19T08:05:30;7.13;;;5.80;;
45684;SDS011;46836;48.388;16.210;2022-08-19T08:08:15;14.57;;;9.20;;
45684;SDS011;46836;48.388;16.210;2022-08-19T08:11:01;8.03;;;5.97;;
45684;SDS011;46836;48.388;16.210;2022-08-19T08:13:33;7.90;;;6.60;;
45684;SDS011;46836;48.388;16.210;2022-08-19T08:16:04;11.73;;;7.30;;
45684;SDS011;46836;48.388;16.210;2022-08-19T08:18:39;11.93;;;7.77;;
45684;SDS011;46836;48.388;16.210;2022-08-19T08:21:18;7.60;;;6.70;;
45684;SDS011;46836;48.388;16.210;2022-08-19T08:23:45;11.80;;;7.90;;
45684;SDS011;46836;48.388;16.210;2022-08-19T08:26:12;9.40;;;8.00;;
45684;SDS011;46836;48.388;16.210;2022-08-19T08:28:41;8.67;;;7.77;;
45684;SDS011;46836;48.388;16.210;2022-08-19T08:31:13;9.47;;;8.57;;
45684;SDS011;46836;48.388;16.210;2022-08-19T08:33:40;8.93;;;7.97;;
45684;SDS011;46836;48.388;16.210;2022-08-19T08:36:09;10.80;;;8.13;;
45684;SDS011;46836;48.388;16.210;2022-08-19T08:38:37;10.20;;;7.50;;
45684;SDS011;46836;48.388;16.210;2022-08-19T08:41:53;8.90;;;8.00;;
45684;SDS011;46836;48.388;16.210;2022-08-19T08:43:57;9.93;;;8.00;;
45684;SDS011;46836;48.388;16.210;2022-08-19T08:46:27;9.70;;;8.53;;
45684;SDS011;46836;48.388;16.210;2022-08-19T08:52:23;8.57;;;7.73;;
45684;SDS011;46836;48.388;16.210;2022-08-19T08:54:47;9.07;;;8.00;;
45684;SDS011;46836;48.388;16.210;2022-08-19T08:57:26;9.20;;;8.30;;
45684;SDS011;46836;48.388;16.210;2022-08-19T09:00:07;10.07;;;7.23;;
45684;SDS011;46836;48.388;16.210;2022-08-19T09:02:42;10.53;;;7.70;;
45684;SDS011;46836;48.388;16.210;2022-08-19T09:05:16;10.27;;;8.63;;
45684;SDS011;46836;48.388;16.210;2022-08-19T09:08:02;9.00;;;8.10;;
45684;SDS011;46836;48.388;16.210;2022-08-19T09:10:47;8.80;;;8.00;;
45684;SDS011;46836;48.388;16.210;2022-08-19T09:16:00;9.17;;;7.90;;
45684;SDS011;46836;48.388;16.210;2022-08-19T09:18:43;11.27;;;8.37;;
45684;SDS011;46836;48.388;16.210;2022-08-19T09:21:14;10.30;;;8.37;;
45684;SDS011;46836;48.388;16.210;2022-08-19T09:23:45;8.50;;;7.80;;
45684;SDS011;46836;48.388;16.210;2022-08-19T09:26:20;9.00;;;8.10;;
45684;SDS011;46836;48.388;16.210;2022-08-19T09:29:00;12.17;;;7.40;;
45684;SDS011;46836;48.388;16.210;2022-08-19T09:31:31;10.40;;;9.30;;
45684;SDS011;46836;48.388;16.210;2022-08-19T09:33:59;10.23;;;7.90;;
45684;SDS011;46836;48.388;16.210;2022-08-19T09:36:27;8.90;;;8.00;;
45684;SDS011;46836;48.388;16.210;2022-08-19T09:39:00;8.63;;;7.80;;
45684;SDS011;46836;48.388;16.210;2022-08-19T09:41:41;9.67;;;8.67;;
45684;SDS011;46836;48.388;16.210;2022-08-19T09:44:12;9.20;;;8.27;;
45684;SDS011;46836;48.388;16.210;2022-08-19T09:46:39;9.67;;;8.70;;
45684;SDS011;46836;48.388;16.210;2022-08-19T09:49:07;10.20;;;8.80;;
45684;SDS011;46836;48.388;16.210;2022-08-19T09:51:34;8.97;;;8.17;;
45684;SDS011;46836;48.388;16.210;2022-08-19T09:54:03;9.80;;;7.50;;
45684;SDS011;46836;48.388;16.210;2022-08-19T09:56:31;9.07;;;8.17;;
45684;SDS011;46836;48.388;16.210;2022-08-19T09:59:00;9.33;;;8.53;;
45684;SDS011;46836;48.388;16.210;2022-08-19T10:01:29;10.67;;;9.57;;
45684;SDS011;46836;48.388;16.210;2022-08-19T10:03:58;8.37;;;7.67;;
45684;SDS011;46836;48.388;16.210;2022-08-19T10:06:28;8.17;;;7.43;;
45684;SDS011;46836;48.388;16.210;2022-08-19T10:09:12;8.67;;;7.90;;
45684;SDS011;46836;48.388;16.210;2022-08-19T10:11:42;8.43;;;7.57;;
45684;SDS011;46836;48.388;16.210;2022-08-19T10:14:20;8.17;;;7.30;;
45684;SDS011;46836;48.388;16.210;2022-08-19T10:16:50;9.43;;;7.10;;
45684;SDS011;46836;48.388;16.210;2022-08-19T10:19:18;8.40;;;7.33;;
45684;SDS011;46836;48.388;16.210;2022-08-19T10:21:51;7.37;;;6.57;;
45684;SDS011;46836;48.388;16.210;2022-08-19T10:24:18;7.57;;;6.80;;
45684;SDS011;46836;48.388;16.210;2022-08-19T10:26:47;8.83;;;7.43;;
45684;SDS011;46836;48.388;16.210;2022-08-19T10:29:22;7.67;;;7.03;;
45684;SDS011;46836;48.388;16.210;2022-08-19T10:31:59;7.83;;;7.13;;
45684;SDS011;46836;48.388;16.210;2022-08-19T10:34:29;9.00;;;7.40;;
45684;SDS011;46836;48.388;16.210;2022-08-19T10:36:57;9.43;;;7.17;;
45684;SDS011;46836;48.388;16.210;2022-08-19T10:39:30;8.37;;;7.33;;
45684;SDS011;46836;48.388;16.210;2022-08-19T10:42:08;8.30;;;7.57;;
45684;SDS011;46836;48.388;16.210;2022-08-19T10:44:37;7.63;;;6.83;;
45684;SDS011;46836;48.388;16.210;2022-08-19T10:47:04;10.40;;;7.83;;
45684;SDS011;46836;48.388;16.210;2022-08-19T10:49:50;6.70;;;6.10;;
45684;SDS011;46836;48.388;16.210;2022-08-19T10:52:38;8.40;;;6.83;;
45684;SDS011;46836;48.388;16.210;2022-08-19T10:55:16;7.43;;;6.53;;
45684;SDS011;46836;48.388;16.210;2022-08-19T10:58:04;6.73;;;6.20;;
45684;SDS011;46836;48.388;16.210;2022-08-19T11:00:41;8.27;;;6.67;;
45684;SDS011;46836;48.388;16.210;2022-08-19T11:03:10;6.70;;;6.10;;
45684;SDS011;46836;48.388;16.210;2022-08-19T11:05:37;6.73;;;5.90;;
45684;SDS011;46836;48.388;16.210;2022-08-19T11:08:06;8.00;;;6.57;;
45684;SDS011;46836;48.388;16.210;2022-08-19T11:10:50;7.40;;;6.70;;
45684;SDS011;46836;48.388;16.210;2022-08-19T11:13:20;7.20;;;6.60;;
45684;SDS011;46836;48.388;16.210;2022-08-19T11:15:47;7.40;;;6.47;;
45684;SDS011;46836;48.388;16.210;2022-08-19T11:18:22;6.33;;;5.77;;
45684;SDS011;46836;48.388;16.210;2022-08-19T11:20:49;11.07;;;6.80;;
45684;SDS011;46836;48.388;16.210;2022-08-19T11:23:16;9.90;;;6.70;;
45684;SDS011;46836;48.388;16.210;2022-08-19T11:25:43;9.63;;;6.80;;
45684;SDS011;46836;48.388;16.210;2022-08-19T11:28:12;9.57;;;6.30;;
45684;SDS011;46836;48.388;16.210;2022-08-19T11:30:39;7.23;;;6.60;;
45684;SDS011;46836;48.388;16.210;2022-08-19T11:33:06;8.60;;;7.60;;
45684;SDS011;46836;48.388;16.210;2022-08-19T11:35:33;6.43;;;5.83;;
45684;SDS011;46836;48.388;16.210;2022-08-19T11:38:04;9.43;;;8.50;;
45684;SDS011;46836;48.388;16.210;2022-08-19T11:40:35;8.50;;;6.47;;
45684;SDS011;46836;48.388;16.210;2022-08-19T11:43:02;7.23;;;5.93;;
45684;SDS011;46836;48.388;16.210;2022-08-19T11:45:29;7.83;;;6.00;;
45684;SDS011;46836;48.388;16.210;2022-08-19T11:47:57;8.50;;;7.00;;
45684;SDS011;46836;48.388;16.210;2022-08-19T11:50:24;9.20;;;6.23;;
45684;SDS011;46836;48.388;16.210;2022-08-19T11:52:55;11.70;;;7.43;;
45684;SDS011;46836;48.388;16.210;2022-08-19T11:55:23;6.53;;;5.97;;
45684;SDS011;46836;48.388;16.210;2022-08-19T11:57:50;7.17;;;6.47;;
45684;SDS011;46836;48.388;16.210;2022-08-19T12:00:17;8.17;;;5.67;;
45684;SDS011;46836;48.388;16.210;2022-08-19T12:02:44;10.43;;;5.77;;
45684;SDS011;46836;48.388;16.210;2022-08-19T12:05:12;6.73;;;5.97;;
45684;SDS011;46836;48.388;16.210;2022-08-19T12:07:39;7.40;;;5.73;;
45684;SDS011;46836;48.388;16.210;2022-08-19T12:10:09;6.50;;;4.93;;
45684;SDS011;46836;48.388;16.210;2022-08-19T12:12:36;11.03;;;5.17;;
45684;SDS011;46836;48.388;16.210;2022-08-19T12:15:12;8.63;;;5.23;;
45684;SDS011;46836;48.388;16.210;2022-08-19T12:17:41;7.60;;;5.30;;
45684;SDS011;46836;48.388;16.210;2022-08-19T12:20:09;9.13;;;5.70;;
45684;SDS011;46836;48.388;16.210;2022-08-19T12:22:37;7.23;;;5.17;;
45684;SDS011;46836;48.388;16.210;2022-08-19T12:25:05;6.50;;;5.53;;
45684;SDS011;46836;48.388;16.210;2022-08-19T12:27:36;10.23;;;6.43;;
45684;SDS011;46836;48.388;16.210;2022-08-19T12:30:08;5.80;;;5.00;;
45684;SDS011;46836;48.388;16.210;2022-08-19T12:32:37;11.30;;;6.03;;
45684;SDS011;46836;48.388;16.210;2022-08-19T12:35:05;8.10;;;5.10;;
45684;SDS011;46836;48.388;16.210;2022-08-19T12:37:33;7.50;;;5.47;;
45684;SDS011;46836;48.388;16.210;2022-08-19T12:40:00;7.23;;;5.33;;
45684;SDS011;46836;48.388;16.210;2022-08-19T12:42:29;8.60;;;5.00;;
45684;SDS011;46836;48.388;16.210;2022-08-19T12:44:56;11.33;;;5.40;;
45684;SDS011;46836;48.388;16.210;2022-08-19T12:47:23;9.23;;;4.70;;
45684;SDS011;46836;48.388;16.210;2022-08-19T12:49:52;6.07;;;5.10;;
45684;SDS011;46836;48.388;16.210;2022-08-19T12:52:22;11.20;;;4.97;;
45684;SDS011;46836;48.388;16.210;2022-08-19T12:54:51;9.60;;;4.57;;
45684;SDS011;46836;48.388;16.210;2022-08-19T12:57:21;7.30;;;3.93;;
45684;SDS011;46836;48.388;16.210;2022-08-19T13:00:20;12.20;;;4.13;;
45684;SDS011;46836;48.388;16.210;2022-08-19T13:02:48;14.03;;;5.20;;
45684;SDS011;46836;48.388;16.210;2022-08-19T13:05:18;17.07;;;6.23;;
45684;SDS011;46836;48.388;16.210;2022-08-19T13:07:50;9.33;;;4.47;;
45684;SDS011;46836;48.388;16.210;2022-08-19T13:10:22;9.00;;;4.30;;
45684;SDS011;46836;48.388;16.210;2022-08-19T13:12:51;9.10;;;4.80;;
45684;SDS011;46836;48.388;16.210;2022-08-19T13:15:22;8.33;;;4.63;;
45684;SDS011;46836;48.388;16.210;2022-08-19T13:17:50;8.20;;;5.50;;
45684;SDS011;46836;48.388;16.210;2022-08-19T13:20:20;11.57;;;4.80;;
45684;SDS011;46836;48.388;16.210;2022-08-19T13:22:48;5.37;;;4.40;;
45684;SDS011;46836;48.388;16.210;2022-08-19T13:25:15;9.67;;;5.00;;
45684;SDS011;46836;48.388;16.210;2022-08-19T13:27:46;7.70;;;5.47;;
45684;SDS011;46836;48.388;16.210;2022-08-19T13:30:15;10.97;;;5.40;;
45684;SDS011;46836;48.388;16.210;2022-08-19T13:33:02;8.73;;;4.87;;
45684;SDS011;46836;48.388;16.210;2022-08-19T13:38:17;8.57;;;4.30;;
45684;SDS011;46836;48.388;16.210;2022-08-19T13:40:47;9.50;;;5.00;;
45684;SDS011;46836;48.388;16.210;2022-08-19T13:43:16;8.60;;;4.70;;
45684;SDS011;46836;48.388;16.210;2022-08-19T13:45:49;8.10;;;5.00;;
45684;SDS011;46836;48.388;16.210;2022-08-19T13:48:20;9.53;;;5.53;;
45684;SDS011;46836;48.388;16.210;2022-08-19T13:50:47;14.17;;;5.40;;
45684;SDS011;46836;48.388;16.210;2022-08-19T13:53:15;10.27;;;4.80;;
45684;SDS011;46836;48.388;16.210;2022-08-19T13:55:43;11.13;;;4.43;;
45684;SDS011;46836;48.388;16.210;2022-08-19T13:58:11;16.60;;;4.80;;
45684;SDS011;46836;48.388;16.210;2022-08-19T14:00:39;8.77;;;4.47;;
45684;SDS011;46836;48.388;16.210;2022-08-19T14:03:08;6.00;;;4.17;;
45684;SDS011;46836;48.388;16.210;2022-08-19T14:05:35;12.20;;;4.30;;
45684;SDS011;46836;48.388;16.210;2022-08-19T14:08:03;9.53;;;4.97;;
45684;SDS011;46836;48.388;16.210;2022-08-19T14:10:31;8.90;;;4.77;;
45684;SDS011;46836;48.388;16.210;2022-08-19T14:13:00;10.77;;;4.70;;
45684;SDS011;46836;48.388;16.210;2022-08-19T14:15:29;6.30;;;3.77;;
45684;SDS011;46836;48.388;16.210;2022-08-19T14:17:57;5.37;;;3.60;;
45684;SDS011;46836;48.388;16.210;2022-08-19T14:20:24;8.70;;;4.17;;
45684;SDS011;46836;48.388;16.210;2022-08-19T14:22:52;11.63;;;5.30;;
45684;SDS011;46836;48.388;16.210;2022-08-19T14:25:23;12.87;;;3.63;;
45684;SDS011;46836;48.388;16.210;2022-08-19T14:27:52;12.77;;;4.73;;
45684;SDS011;46836;48.388;16.210;2022-08-19T14:30:23;8.73;;;3.50;;
45684;SDS011;46836;48.388;16.210;2022-08-19T14:32:54;11.93;;;4.57;;
45684;SDS011;46836;48.388;16.210;2022-08-19T14:35:22;10.47;;;4.10;;
45684;SDS011;46836;48.388;16.210;2022-08-19T14:37:50;14.93;;;4.37;;
45684;SDS011;46836;48.388;16.210;2022-08-19T14:40:26;11.57;;;3.80;;
45684;SDS011;46836;48.388;16.210;2022-08-19T14:42:56;5.70;;;3.67;;
45684;SDS011;46836;48.388;16.210;2022-08-19T14:45:31;8.03;;;4.17;;
45684;SDS011;46836;48.388;16.210;2022-08-19T14:48:01;11.47;;;4.47;;
45684;SDS011;46836;48.388;16.210;2022-08-19T14:50:29;12.27;;;4.20;;
45684;SDS011;46836;48.388;16.210;2022-08-19T14:52:58;10.37;;;4.57;;
45684;SDS011;46836;48.388;16.210;2022-08-19T14:55:39;6.53;;;3.50;;
45684;SDS011;46836;48.388;16.210;2022-08-19T14:58:08;8.10;;;4.10;;
45684;SDS011;46836;48.388;16.210;2022-08-19T15:00:55;7.00;;;4.37;;